createdAt,value
2022-09-09T00:01:14.740Z,14.30
2022-09-09T00:03:57.153Z,14.30
2022-09-09T00:06:44.020Z,14.30
2022-09-09T00:09:20.034Z,14.30
2022-09-09T00:11:57.754Z,14.20
2022-09-09T00:14:50.084Z,14.30
2022-09-09T00:17:44.276Z,14.30
2022-09-09T00:20:33.037Z,14.30
2022-09-09T00:23:15.454Z,14.30
2022-09-09T00:26:00.847Z,14.20
2022-09-09T00:28:33.199Z,14.20
2022-09-09T00:31:16.658Z,14.10
2022-09-09T00:33:44.304Z,14.00
2022-09-09T00:36:16.633Z,14.00
2022-09-09T00:38:46.038Z,14.00
2022-09-09T00:41:23.706Z,13.90
2022-09-09T00:44:16.753Z,14.00
2022-09-09T00:46:55.981Z,14.00
2022-09-09T00:50:01.917Z,14.00
2022-09-09T00:52:58.552Z,14.10
2022-09-09T00:55:51.359Z,14.10
2022-09-09T00:58:18.169Z,14.00
2022-09-09T01:00:55.042Z,13.90
2022-09-09T01:03:40.139Z,13.80
2022-09-09T01:06:32.638Z,13.80
2022-09-09T01:09:26.959Z,13.80
2022-09-09T01:12:32.957Z,13.80
2022-09-09T01:15:10.093Z,13.80
2022-09-09T01:17:51.146Z,13.80
2022-09-09T01:20:31.231Z,13.90
2022-09-09T01:23:15.083Z,13.90
2022-09-09T01:26:03.657Z,13.90
2022-09-09T01:28:31.559Z,13.90
2022-09-09T01:31:06.695Z,14.00
2022-09-09T01:37:27.337Z,13.90
2022-09-09T01:39:54.123Z,13.80
2022-09-09T01:42:20.942Z,13.70
2022-09-09T01:44:47.879Z,13.70
2022-09-09T01:47:16.374Z,13.80
2022-09-09T01:50:07.878Z,13.80
2022-09-09T01:52:36.664Z,13.90
2022-09-09T01:55:06.189Z,13.90
2022-09-09T01:58:10.075Z,14.00
2022-09-09T02:00:44.788Z,14.00
2022-09-09T02:03:28.554Z,14.00
2022-09-09T02:06:01.261Z,14.00
2022-09-09T02:08:46.406Z,14.00
2022-09-09T02:11:18.578Z,13.90
2022-09-09T02:13:57.587Z,13.90
2022-09-09T02:16:31.897Z,13.90
2022-09-09T02:19:13.754Z,13.90
2022-09-09T02:21:55.489Z,13.90
2022-09-09T02:24:23.045Z,13.90
2022-09-09T02:27:01.688Z,14.00
2022-09-09T02:29:37.098Z,13.90
2022-09-09T02:32:07.953Z,13.80
2022-09-09T02:34:50.761Z,13.80
2022-09-09T02:37:21.179Z,13.70
2022-09-09T02:39:52.480Z,13.70
2022-09-09T02:42:21.624Z,13.70
2022-09-09T02:44:49.393Z,13.60
2022-09-09T02:47:34.898Z,13.70
2022-09-09T02:50:22.097Z,13.60
2022-09-09T02:53:17.604Z,13.70
2022-09-09T02:55:57.438Z,13.70
2022-09-09T02:58:25.107Z,13.70
2022-09-09T03:01:03.952Z,13.70
2022-09-09T03:03:32.317Z,13.60
2022-09-09T03:06:01.452Z,13.70
2022-09-09T03:08:29.011Z,13.80
2022-09-09T03:11:02.254Z,13.80
2022-09-09T03:13:31.571Z,13.80
2022-09-09T03:15:58.426Z,13.80
2022-09-09T03:18:26.125Z,13.80
2022-09-09T03:20:55.052Z,13.70
2022-09-09T03:23:22.694Z,13.60
2022-09-09T03:25:50.989Z,13.70
2022-09-09T03:28:21.675Z,13.70
2022-09-09T03:30:49.906Z,13.60
2022-09-09T03:33:17.271Z,13.60
2022-09-09T03:35:49.624Z,13.70
2022-09-09T03:38:18.398Z,13.60
2022-09-09T03:40:54.457Z,13.60
2022-09-09T03:43:23.257Z,13.50
2022-09-09T03:45:51.695Z,13.40
2022-09-09T03:48:19.197Z,13.40
2022-09-09T03:50:47.870Z,13.40
2022-09-09T03:53:16.567Z,13.40
2022-09-09T03:55:48.210Z,13.40
2022-09-09T03:58:16.346Z,13.50
2022-09-09T04:00:45.828Z,13.50
2022-09-09T04:03:13.252Z,13.50
2022-09-09T04:05:43.445Z,13.50
2022-09-09T04:08:11.009Z,13.50
2022-09-09T04:10:38.172Z,13.60
2022-09-09T04:13:06.268Z,13.60
2022-09-09T04:15:33.339Z,13.60
2022-09-09T04:18:00.214Z,13.70
2022-09-09T04:20:27.174Z,13.70
2022-09-09T04:22:53.920Z,13.80
2022-09-09T04:25:21.096Z,13.90
2022-09-09T04:27:48.504Z,14.00
2022-09-09T04:30:15.457Z,14.00
2022-09-09T04:32:42.614Z,14.00
2022-09-09T04:35:09.490Z,14.10
2022-09-09T04:37:36.694Z,14.10
2022-09-09T04:40:04.149Z,14.20
2022-09-09T04:42:35.513Z,14.20
2022-09-09T04:45:02.853Z,14.30
2022-09-09T04:47:33.380Z,14.30
2022-09-09T04:50:00.221Z,14.40
2022-09-09T04:52:27.177Z,14.40
2022-09-09T04:54:55.155Z,14.70
2022-09-09T04:57:22.025Z,14.70
2022-09-09T04:59:49.050Z,14.70
2022-09-09T05:02:16.446Z,14.80
2022-09-09T05:04:43.258Z,14.90
2022-09-09T05:07:10.115Z,14.90
2022-09-09T05:09:37.003Z,15.00
2022-09-09T05:12:05.255Z,15.10
2022-09-09T05:14:38.286Z,15.20
2022-09-09T05:17:06.049Z,15.30
2022-09-09T05:19:33.732Z,15.40
2022-09-09T05:22:02.032Z,15.30
2022-09-09T05:24:37.752Z,15.40
2022-09-09T05:27:07.040Z,15.40
2022-09-09T05:29:37.244Z,15.60
2022-09-09T05:32:06.076Z,15.60
2022-09-09T05:34:33.516Z,15.70
2022-09-09T05:37:01.254Z,15.90
2022-09-09T05:39:28.089Z,16.00
2022-09-09T05:41:55.492Z,16.20
2022-09-09T05:44:24.361Z,16.20
2022-09-09T05:46:51.302Z,16.20
2022-09-09T05:49:18.058Z,16.10
2022-09-09T05:51:45.295Z,16.20
2022-09-09T05:54:16.334Z,16.20
2022-09-09T05:56:51.031Z,16.50
2022-09-09T05:59:19.328Z,16.80
2022-09-09T06:01:46.435Z,17.10
2022-09-09T06:04:25.239Z,17.10
2022-09-09T06:06:52.285Z,16.90
2022-09-09T06:09:21.869Z,16.80
2022-09-09T06:11:48.687Z,16.50
2022-09-09T06:14:16.026Z,16.30
2022-09-09T06:16:46.183Z,16.20
2022-09-09T06:19:25.390Z,16.40
2022-09-09T06:21:52.262Z,16.40
2022-09-09T06:24:20.394Z,16.30
2022-09-09T06:26:47.104Z,16.40
2022-09-09T06:29:19.704Z,16.40
2022-09-09T06:31:46.538Z,16.30
2022-09-09T06:34:16.603Z,16.40
2022-09-09T06:36:47.505Z,16.40
2022-09-09T06:39:16.406Z,16.60
2022-09-09T06:41:44.022Z,16.80
2022-09-09T06:44:43.063Z,17.00
2022-09-09T06:47:13.970Z,17.40
2022-09-09T06:49:48.089Z,17.70
2022-09-09T06:52:15.245Z,18.00
2022-09-09T06:54:42.018Z,18.20
2022-09-09T06:57:33.638Z,18.30
2022-09-09T06:59:56.861Z,18.30
2022-09-09T07:02:24.755Z,18.60
2022-09-09T07:04:52.572Z,18.70
2022-09-09T07:07:19.971Z,18.80
2022-09-09T07:09:47.090Z,18.90
2022-09-09T07:12:14.764Z,18.90
2022-09-09T07:14:48.533Z,19.10
2022-09-09T07:17:15.442Z,19.20
2022-09-09T07:19:43.245Z,18.80
2022-09-09T07:22:11.596Z,18.80
2022-09-09T07:24:38.867Z,18.90
2022-09-09T07:27:06.686Z,19.10
2022-09-09T07:29:33.963Z,18.80
2022-09-09T07:32:01.080Z,18.90
2022-09-09T07:34:33.277Z,19.10
2022-09-09T07:37:01.340Z,19.20
2022-09-09T07:39:29.841Z,19.40
2022-09-09T07:41:56.875Z,19.40
2022-09-09T07:44:28.545Z,19.30
2022-09-09T07:47:05.341Z,19.40
2022-09-09T07:49:37.259Z,19.40
2022-09-09T07:54:40.785Z,19.20
2022-09-09T07:57:07.948Z,19.00
2022-09-09T07:59:36.614Z,19.00
2022-09-09T08:02:04.074Z,19.00
2022-09-09T08:04:33.366Z,19.00
2022-09-09T08:07:02.377Z,19.00
2022-09-09T08:09:33.412Z,19.20
2022-09-09T08:12:20.515Z,19.20
2022-09-09T08:14:47.362Z,19.30
2022-09-09T08:17:14.091Z,19.20
2022-09-09T08:19:41.037Z,19.20
2022-09-09T08:22:13.406Z,18.90
2022-09-09T08:24:40.762Z,18.50
2022-09-09T08:27:08.493Z,18.50
2022-09-09T08:29:35.521Z,18.70
2022-09-09T08:32:03.162Z,18.70
2022-09-09T08:34:31.450Z,18.90
2022-09-09T08:37:01.012Z,18.70
2022-09-09T08:39:40.381Z,18.80
2022-09-09T08:42:18.379Z,18.90
2022-09-09T08:45:20.231Z,19.30
2022-09-09T08:48:12.664Z,19.30
2022-09-09T08:50:42.081Z,19.40
2022-09-09T08:53:33.173Z,19.30
2022-09-09T08:56:20.024Z,19.40
2022-09-09T08:58:52.021Z,19.60
2022-09-09T09:02:00.036Z,19.40
2022-09-09T09:04:46.520Z,19.40
2022-09-09T09:07:29.505Z,19.30
2022-09-09T09:10:41.750Z,19.10
2022-09-09T09:13:33.125Z,19.20
2022-09-09T09:16:12.629Z,19.20
2022-09-09T09:18:39.514Z,19.50
2022-09-09T09:21:16.490Z,19.60
2022-09-09T09:23:58.569Z,19.50
2022-09-09T09:26:35.357Z,19.40
2022-09-09T09:29:12.926Z,19.30
2022-09-09T09:31:46.700Z,19.50
2022-09-09T09:34:13.549Z,19.80
2022-09-09T09:36:48.019Z,20.00
2022-09-09T09:42:23.737Z,20.00
2022-09-09T09:44:52.666Z,20.30
2022-09-09T09:47:24.366Z,20.60
2022-09-09T09:50:21.412Z,20.70
2022-09-09T09:53:36.640Z,20.70
2022-09-09T09:56:11.012Z,20.60
2022-09-09T09:58:45.475Z,20.50
2022-09-09T10:01:25.355Z,20.40
2022-09-09T10:03:58.806Z,20.60
2022-09-09T10:06:34.467Z,20.70
2022-09-09T10:09:03.894Z,20.80
2022-09-09T10:11:53.079Z,20.60
2022-09-09T10:14:28.932Z,20.80
2022-09-09T10:17:18.096Z,21.10
2022-09-09T10:20:05.431Z,21.20
2022-09-09T10:22:35.200Z,21.40
2022-09-09T10:25:27.004Z,21.50
2022-09-09T10:28:19.103Z,21.90
2022-09-09T10:31:00.883Z,21.90
2022-09-09T10:33:51.224Z,21.80
2022-09-09T10:36:25.446Z,21.60
2022-09-09T10:39:06.586Z,21.50
2022-09-09T10:41:45.058Z,21.00
2022-09-09T10:44:36.048Z,20.60
2022-09-09T10:47:16.676Z,20.80
2022-09-09T10:49:55.563Z,21.00
2022-09-09T10:52:38.029Z,20.70
2022-09-09T10:55:20.750Z,20.70
2022-09-09T10:57:55.653Z,20.70
2022-09-09T11:00:25.294Z,21.00
2022-09-09T11:03:04.125Z,21.00
2022-09-09T11:05:46.422Z,20.90
2022-09-09T11:08:25.648Z,21.10
2022-09-09T11:11:04.620Z,21.60
2022-09-09T11:13:45.863Z,21.80
2022-09-09T11:16:49.058Z,21.50
2022-09-09T11:19:44.576Z,21.30
2022-09-09T11:22:19.016Z,21.20
2022-09-09T11:24:51.876Z,21.00
2022-09-09T11:27:25.873Z,21.10
2022-09-09T11:30:08.248Z,21.40
2022-09-09T11:33:13.734Z,21.30
2022-09-09T11:35:54.554Z,21.50
2022-09-09T11:38:48.214Z,21.70
2022-09-09T11:41:20.990Z,21.90
2022-09-09T11:43:53.159Z,21.60
2022-09-09T11:46:37.411Z,21.60
2022-09-09T11:49:07.908Z,20.90
2022-09-09T11:51:36.319Z,21.00
2022-09-09T11:54:31.106Z,20.80
2022-09-09T11:56:58.626Z,20.00
2022-09-09T11:59:32.215Z,18.70
2022-09-09T12:02:02.670Z,18.20
2022-09-09T12:04:33.823Z,18.00
2022-09-09T12:07:26.947Z,17.80
2022-09-09T12:10:00.564Z,17.50
2022-09-09T12:12:33.077Z,17.30
2022-09-09T12:15:08.861Z,17.10
2022-09-09T12:17:44.227Z,16.70
2022-09-09T12:20:24.674Z,16.70
2022-09-09T12:23:33.846Z,16.50
2022-09-09T12:26:22.841Z,16.50
2022-09-09T12:28:58.621Z,16.60
2022-09-09T12:31:47.841Z,16.80
2022-09-09T12:34:43.702Z,17.00
2022-09-09T12:37:15.663Z,17.30
2022-09-09T12:39:50.598Z,17.50
2022-09-09T12:42:19.805Z,17.70
2022-09-09T12:44:57.140Z,17.90
2022-09-09T12:47:31.478Z,17.90
2022-09-09T12:49:58.543Z,18.00
2022-09-09T12:52:33.296Z,17.90
2022-09-09T12:55:01.700Z,17.80
2022-09-09T12:57:35.411Z,17.70
2022-09-09T13:00:17.844Z,17.70
2022-09-09T13:02:59.930Z,17.60
2022-09-09T13:05:38.350Z,17.60
2022-09-09T13:08:08.500Z,17.60
2022-09-09T13:10:53.960Z,17.60
2022-09-09T13:13:26.913Z,17.80
2022-09-09T13:15:59.959Z,17.90
2022-09-09T13:18:39.233Z,18.00
2022-09-09T13:21:06.132Z,18.10
2022-09-09T13:23:36.285Z,18.20
2022-09-09T13:26:26.802Z,18.30
2022-09-09T13:28:55.272Z,18.60
2022-09-09T13:31:29.351Z,18.90
2022-09-09T13:33:56.901Z,19.30
2022-09-09T13:36:32.124Z,19.00
2022-09-09T13:39:04.705Z,19.20
2022-09-09T13:41:35.759Z,19.30
2022-09-09T13:44:07.510Z,19.30
2022-09-09T13:46:41.239Z,19.30
2022-09-09T13:49:09.741Z,19.30
2022-09-09T13:51:47.826Z,19.30
2022-09-09T13:54:16.794Z,19.40
2022-09-09T13:56:44.191Z,19.40
2022-09-09T13:59:14.836Z,19.50
2022-09-09T14:01:42.492Z,19.20
2022-09-09T14:04:09.939Z,18.90
2022-09-09T14:06:39.116Z,18.70
2022-09-09T14:09:12.940Z,18.50
2022-09-09T14:11:41.463Z,18.30
2022-09-09T14:14:08.316Z,18.20
2022-09-09T14:16:35.378Z,18.10
2022-09-09T14:19:02.347Z,18.10
2022-09-09T14:21:29.561Z,18.00
2022-09-09T14:23:58.957Z,18.00
2022-09-09T14:26:25.713Z,18.00
2022-09-09T14:28:56.275Z,18.10
2022-09-09T14:31:24.586Z,18.20
2022-09-09T14:33:52.003Z,18.20
2022-09-09T14:36:19.190Z,18.40
2022-09-09T14:38:45.929Z,18.50
2022-09-09T14:41:14.619Z,18.90
2022-09-09T14:43:41.762Z,19.30
2022-09-09T14:46:12.923Z,19.50
2022-09-09T14:48:42.573Z,19.80
2022-09-09T14:51:16.120Z,20.10
2022-09-09T14:53:44.581Z,20.10
2022-09-09T14:56:17.059Z,20.20
2022-09-09T14:58:44.872Z,20.10
2022-09-09T15:01:19.959Z,20.00
2022-09-09T15:03:54.647Z,20.00
2022-09-09T15:06:22.886Z,20.20
2022-09-09T15:08:52.114Z,20.00
2022-09-09T15:11:19.363Z,20.10
2022-09-09T15:13:46.133Z,20.00
2022-09-09T15:16:15.861Z,19.90
2022-09-09T15:18:43.900Z,19.80
2022-09-09T15:21:19.936Z,19.80
2022-09-09T15:23:48.107Z,19.90
2022-09-09T15:26:18.114Z,20.00
2022-09-09T15:28:46.473Z,20.00
2022-09-09T15:31:20.583Z,19.70
2022-09-09T15:34:01.585Z,19.50
2022-09-09T15:36:31.022Z,19.20
2022-09-09T15:38:57.795Z,19.10
2022-09-09T15:41:24.938Z,19.10
2022-09-09T15:43:53.686Z,18.90
2022-09-09T15:46:28.339Z,18.70
2022-09-09T15:48:57.562Z,18.90
2022-09-09T15:51:41.798Z,18.90
2022-09-09T15:54:11.217Z,19.10
2022-09-09T15:56:37.851Z,18.90
2022-09-09T15:59:04.757Z,19.00
2022-09-09T16:01:32.336Z,19.10
2022-09-09T16:04:01.000Z,19.10
2022-09-09T16:06:29.607Z,19.10
2022-09-09T16:08:57.676Z,19.00
2022-09-09T16:11:30.680Z,18.90
2022-09-09T16:13:57.576Z,18.90
2022-09-09T16:16:28.258Z,18.80
2022-09-09T16:18:58.159Z,18.70
2022-09-09T16:21:34.229Z,18.50
2022-09-09T16:24:03.565Z,18.50
2022-09-09T16:26:32.716Z,18.50
2022-09-09T16:29:00.677Z,18.40
2022-09-09T16:31:29.355Z,18.30
2022-09-09T16:33:56.426Z,18.50
2022-09-09T16:36:31.336Z,18.50
2022-09-09T16:39:07.194Z,18.30
2022-09-09T16:41:34.566Z,17.50
2022-09-09T16:44:04.739Z,17.00
2022-09-09T16:46:33.474Z,16.60
2022-09-09T16:49:02.108Z,16.60
2022-09-09T16:51:31.989Z,16.40
2022-09-09T16:54:01.242Z,16.30
2022-09-09T16:56:29.746Z,16.20
2022-09-09T16:58:59.499Z,16.10
2022-09-09T17:01:32.593Z,16.10
2022-09-09T17:04:05.965Z,16.10
2022-09-09T17:06:35.524Z,16.10
2022-09-09T17:09:05.111Z,16.00
2022-09-09T17:11:31.864Z,15.90
2022-09-09T17:13:59.430Z,15.80
2022-09-09T17:16:28.955Z,15.70
2022-09-09T17:18:57.682Z,15.80
2022-09-09T17:21:26.407Z,15.80
2022-09-09T17:23:55.036Z,15.90
2022-09-09T17:26:24.806Z,15.80
2022-09-09T17:28:53.348Z,15.60
2022-09-09T17:31:23.687Z,15.20
2022-09-09T17:33:53.520Z,15.10
2022-09-09T17:36:23.945Z,15.20
2022-09-09T17:38:50.991Z,15.00
2022-09-09T17:41:22.484Z,14.90
2022-09-09T17:43:50.399Z,14.80
2022-09-09T17:46:20.920Z,14.80
2022-09-09T17:48:48.183Z,14.70
2022-09-09T17:51:19.834Z,14.70
2022-09-09T17:53:48.962Z,14.50
2022-09-09T17:56:20.848Z,14.60
2022-09-09T17:58:48.411Z,14.60
2022-09-09T18:01:18.548Z,14.70
2022-09-09T18:03:47.529Z,14.80
2022-09-09T18:06:18.391Z,14.80
2022-09-09T18:08:51.046Z,14.80
2022-09-09T18:11:19.266Z,14.80
2022-09-09T18:13:51.314Z,14.80
2022-09-09T18:16:19.185Z,14.80
2022-09-09T18:18:46.790Z,14.90
2022-09-09T18:21:14.305Z,14.90
2022-09-09T18:23:43.289Z,14.90
2022-09-09T18:26:12.507Z,15.00
2022-09-09T18:28:40.672Z,15.00
2022-09-09T18:31:12.775Z,15.00
2022-09-09T18:33:43.005Z,15.00
2022-09-09T18:36:16.156Z,15.00
2022-09-09T18:38:43.949Z,15.00
2022-09-09T18:41:15.868Z,14.90
2022-09-09T18:43:43.496Z,14.80
2022-09-09T18:46:12.055Z,14.60
2022-09-09T18:48:39.612Z,14.60
2022-09-09T18:51:09.488Z,14.60
2022-09-09T18:53:37.161Z,14.50
2022-09-09T18:56:06.231Z,14.60
2022-09-09T18:58:33.696Z,14.60
2022-09-09T19:01:01.657Z,14.70
2022-09-09T19:03:30.506Z,14.70
2022-09-09T19:06:14.504Z,14.80
2022-09-09T19:08:43.221Z,14.80
2022-09-09T19:11:13.977Z,14.90
2022-09-09T19:13:40.879Z,14.80
2022-09-09T19:16:10.148Z,14.90
2022-09-09T19:18:37.147Z,15.00
2022-09-09T19:21:14.161Z,14.90
2022-09-09T19:23:41.711Z,14.90
2022-09-09T19:26:08.855Z,14.80
2022-09-09T19:28:36.122Z,14.70
2022-09-09T19:31:08.285Z,14.70
2022-09-09T19:33:35.801Z,14.50
2022-09-09T19:36:07.049Z,14.50
2022-09-09T19:38:35.428Z,14.50
2022-09-09T19:41:08.104Z,14.50
2022-09-09T19:43:34.973Z,14.40
2022-09-09T19:46:04.305Z,14.40
2022-09-09T19:48:32.780Z,14.50
2022-09-09T19:51:10.806Z,14.50
2022-09-09T19:53:40.328Z,14.50
2022-09-09T19:56:09.258Z,14.50
2022-09-09T19:58:39.878Z,14.50
2022-09-09T20:01:10.623Z,14.60
2022-09-09T20:03:38.813Z,14.50
2022-09-09T20:06:12.016Z,14.50
2022-09-09T20:08:40.181Z,14.60
2022-09-09T20:11:08.219Z,14.50
2022-09-09T20:13:39.209Z,14.50
2022-09-09T20:16:11.241Z,14.50
2022-09-09T20:18:42.083Z,14.50
2022-09-09T20:21:15.408Z,14.50
2022-09-09T20:23:43.946Z,14.50
2022-09-09T20:26:13.106Z,14.50
2022-09-09T20:28:41.188Z,14.40
2022-09-09T20:31:14.178Z,14.40
2022-09-09T20:33:42.600Z,14.40
2022-09-09T20:36:17.857Z,14.40
2022-09-09T20:38:48.197Z,14.40
2022-09-09T20:41:18.659Z,14.40
2022-09-09T20:43:49.250Z,14.30
2022-09-09T20:46:31.848Z,14.30
2022-09-09T20:49:03.109Z,14.30
2022-09-09T20:51:32.962Z,14.30
2022-09-09T20:54:05.665Z,14.30
2022-09-09T20:56:37.450Z,14.20
2022-09-09T20:59:05.600Z,14.20
2022-09-09T21:01:32.511Z,14.30
2022-09-09T21:04:00.085Z,14.20
2022-09-09T21:06:26.937Z,14.30
2022-09-09T21:08:53.718Z,14.30
2022-09-09T21:11:20.550Z,14.30
2022-09-09T21:13:47.450Z,14.30
2022-09-09T21:16:19.268Z,14.30
2022-09-09T21:18:46.051Z,14.30
2022-09-09T21:21:13.030Z,14.40
2022-09-09T21:23:39.666Z,14.40
2022-09-09T21:26:07.604Z,14.40
2022-09-09T21:28:35.950Z,14.50
2022-09-09T21:31:03.539Z,14.50
2022-09-09T21:33:30.722Z,14.60
2022-09-09T21:36:03.010Z,14.50
2022-09-09T21:38:29.678Z,14.50
2022-09-09T21:40:56.453Z,14.50
2022-09-09T21:43:23.638Z,14.50
2022-09-09T21:45:53.608Z,14.40
2022-09-09T21:48:20.284Z,14.40
2022-09-09T21:50:48.223Z,14.40
2022-09-09T21:53:18.914Z,14.30
2022-09-09T21:55:46.535Z,14.40
2022-09-09T21:58:16.672Z,14.40
2022-09-09T22:00:47.072Z,14.40
2022-09-09T22:03:15.448Z,14.40
2022-09-09T22:05:43.852Z,14.40
2022-09-09T22:08:12.636Z,14.40
2022-09-09T22:10:41.560Z,14.40
2022-09-09T22:13:08.313Z,14.40
2022-09-09T22:15:36.481Z,14.40
2022-09-09T22:18:04.196Z,14.50
2022-09-09T22:20:34.687Z,14.50
2022-09-09T22:23:01.664Z,14.40
2022-09-09T22:25:33.181Z,14.40
2022-09-09T22:27:59.813Z,14.40
2022-09-09T22:30:26.470Z,14.40
2022-09-09T22:32:53.120Z,14.40
2022-09-09T22:35:19.716Z,14.30
2022-09-09T22:37:46.864Z,14.20
2022-09-09T22:40:14.236Z,14.20
2022-09-09T22:42:42.142Z,14.20
2022-09-09T22:45:10.302Z,14.20
2022-09-09T22:47:37.569Z,14.20
2022-09-09T22:50:04.747Z,14.20
2022-09-09T22:52:32.100Z,14.20
2022-09-09T22:55:01.610Z,14.20
2022-09-09T22:57:28.253Z,14.10
2022-09-09T22:59:54.958Z,14.10
2022-09-09T23:02:22.374Z,14.10
2022-09-09T23:04:49.003Z,14.10
2022-09-09T23:07:20.854Z,14.10
2022-09-09T23:09:47.767Z,14.10
2022-09-09T23:12:14.839Z,14.10
2022-09-09T23:14:41.571Z,14.20
2022-09-09T23:17:08.690Z,14.20
2022-09-09T23:19:37.043Z,14.20
2022-09-09T23:22:03.859Z,14.20
2022-09-09T23:24:30.482Z,14.20
2022-09-09T23:26:57.101Z,14.20
2022-09-09T23:29:23.701Z,14.20
2022-09-09T23:31:50.379Z,14.20
2022-09-09T23:34:17.037Z,14.20
2022-09-09T23:36:44.014Z,14.10
2022-09-09T23:39:11.816Z,14.20
2022-09-09T23:41:40.159Z,14.20
2022-09-09T23:44:07.411Z,14.10
2022-09-09T23:46:35.224Z,14.10
2022-09-09T23:49:02.736Z,14.00
2022-09-09T23:51:31.108Z,14.10
2022-09-09T23:54:01.765Z,14.10
2022-09-09T23:56:31.667Z,14.20
2022-09-09T23:58:59.080Z,14.20
